Time;durP1;ratioP1;P1;durP2;ratioP2;P2;SDS_P1;SDS_P2;PMS_P1;PMS_P2;Temp;Humidity;BMP_temperature;BMP_pressure;BME280_temperature;BME280_humidity;BME280_pressure;Samples;Min_cycle;Max_cycle;Signal;HPM_P1;HPM_P2
2023/10/05 00:02:17;;;;;;;13.52;7.07;;;;;;;13.99;100.00;98238.09;5103787;27;20020;-71
2023/10/05 00:04:41;;;;;;;16.85;7.53;;;;;;;13.99;100.00;98235.41;5154055;27;20085;-71
2023/10/05 00:07:11;;;;;;;17.27;7.38;;;;;;;13.92;100.00;98229.56;5157468;27;20094;-71
2023/10/05 00:09:40;;;;;;;22.20;7.55;;;;;;;13.92;100.00;98231.38;5176038;27;20050;-71
2023/10/05 00:12:08;;;;;;;19.77;7.63;;;;;;;13.96;100.00;98235.59;5175571;27;20135;-72
2023/10/05 00:14:37;;;;;;;15.75;7.40;;;;;;;13.99;100.00;98225.50;5157167;27;20546;-70
2023/10/05 00:17:07;;;;;;;18.92;6.95;;;;;;;14.06;100.00;98232.19;5157614;27;20061;-71
2023/10/05 00:19:37;;;;;;;16.45;7.65;;;;;;;14.02;100.00;98229.81;5157058;27;20525;-71
2023/10/05 00:22:03;;;;;;;13.98;7.25;;;;;;;14.04;100.00;98234.13;5155600;27;20458;-71
2023/10/05 00:24:39;;;;;;;18.27;7.63;;;;;;;14.01;100.00;98225.41;5136067;27;20065;-70
2023/10/05 00:27:08;;;;;;;20.85;7.78;;;;;;;13.93;100.00;98225.03;5154589;27;20019;-70
2023/10/05 00:29:42;;;;;;;17.67;7.35;;;;;;;13.96;100.00;98225.72;5119361;27;20073;-71
2023/10/05 00:32:14;;;;;;;20.67;7.55;;;;;;;14.04;100.00;98226.06;5154712;27;20029;-71
2023/10/05 00:34:41;;;;;;;17.13;8.70;;;;;;;14.05;100.00;98224.25;5091510;27;20464;-71
2023/10/05 00:37:07;;;;;;;17.50;7.53;;;;;;;14.03;100.00;98223.47;5133856;27;20035;-71
2023/10/05 00:39:32;;;;;;;15.52;7.78;;;;;;;14.03;100.00;98227.03;5115351;27;20027;-71
2023/10/05 00:44:30;;;;;;;14.75;7.25;;;;;;;14.01;100.00;98226.28;5115390;27;20027;-71
2023/10/05 00:46:55;;;;;;;17.80;7.57;;;;;;;13.98;100.00;98226.47;5115164;27;20509;-71
2023/10/05 00:49:23;;;;;;;16.20;8.02;;;;;;;13.94;100.00;98224.06;5133421;27;20028;-71
2023/10/05 00:54:34;;;;;;;22.85;7.85;;;;;;;13.84;100.00;98231.00;5118080;27;20122;-70
2023/10/05 00:57:06;;;;;;;16.55;8.43;;;;;;;13.75;100.00;98216.31;5097911;27;20023;-71
2023/10/05 00:59:32;;;;;;;16.00;8.00;;;;;;;13.82;100.00;98228.41;5115910;27;20023;-71
2023/10/05 01:04:53;;;;;;;16.67;7.95;;;;;;;13.81;100.00;98225.84;5115182;27;20114;-71
2023/10/05 01:14:58;;;;;;;21.38;7.75;;;;;;;13.74;100.00;98219.97;5115282;27;20436;-71
2023/10/05 01:17:26;;;;;;;16.52;8.05;;;;;;;13.71;100.00;98230.06;5098094;27;20016;-72
2023/10/05 01:19:58;;;;;;;18.63;8.18;;;;;;;13.67;100.00;98217.75;5132974;27;20449;-71
2023/10/05 01:22:32;;;;;;;16.23;7.95;;;;;;;13.67;100.00;98221.31;5102801;27;20549;-71
2023/10/05 01:24:59;;;;;;;15.35;8.10;;;;;;;13.65;100.00;98220.56;5135118;27;20022;-72
2023/10/05 01:27:29;;;;;;;16.73;8.57;;;;;;;13.64;100.00;98223.34;5117995;27;20019;-72
2023/10/05 01:29:55;;;;;;;15.88;7.78;;;;;;;13.56;100.00;98216.66;5135848;27;20071;-72
2023/10/05 01:32:22;;;;;;;16.45;7.90;;;;;;;13.51;100.00;98217.88;5135007;27;20371;-71
2023/10/05 01:34:50;;;;;;;20.58;7.57;;;;;;;13.43;100.00;98210.31;5134803;27;20062;-71
2023/10/05 01:37:23;;;;;;;17.10;8.50;;;;;;;13.43;100.00;98218.38;5135212;27;20010;-71
2023/10/05 01:39:49;;;;;;;21.65;8.63;;;;;;;13.43;100.00;98221.06;5135913;27;20018;-70
2023/10/05 01:42:16;;;;;;;14.90;8.05;;;;;;;13.42;100.00;98211.25;5134850;27;20014;-71
2023/10/05 01:44:47;;;;;;;17.48;8.63;;;;;;;13.46;100.00;98209.25;5134758;27;20023;-71
2023/10/05 01:47:17;;;;;;;14.88;8.40;;;;;;;13.47;100.00;98216.34;5135525;27;20026;-71
2023/10/05 01:49:43;;;;;;;16.45;8.75;;;;;;;13.50;100.00;98219.69;5134506;27;20022;-71
2023/10/05 01:52:11;;;;;;;17.27;8.52;;;;;;;13.47;100.00;98211.81;5134875;27;20451;-72
2023/10/05 01:54:37;;;;;;;16.45;8.70;;;;;;;13.46;100.00;98207.44;5134858;27;20054;-72
2023/10/05 01:57:08;;;;;;;21.75;9.20;;;;;;;13.50;100.00;98218.84;5117445;27;20473;-72
2023/10/05 01:59:37;;;;;;;21.80;8.50;;;;;;;13.49;100.00;98209.91;5135032;27;20474;-70
2023/10/05 02:02:10;;;;;;;30.50;13.52;;;;;;;13.52;100.00;98216.91;5134609;27;20026;-72
2023/10/05 02:04:43;;;;;;;23.88;10.73;;;;;;;13.51;100.00;98207.13;5118009;27;20031;-72
2023/10/05 02:07:09;;;;;;;29.73;12.25;;;;;;;13.57;100.00;98207.59;5135412;27;20472;-71
2023/10/05 02:09:37;;;;;;;75.63;19.60;;;;;;;13.60;100.00;98216.44;5134186;27;20022;-71
2023/10/05 02:12:06;;;;;;;27.80;11.35;;;;;;;13.57;100.00;98209.41;5134443;27;20492;-70
2023/10/05 02:14:34;;;;;;;28.58;11.25;;;;;;;13.62;100.00;98218.06;5134533;27;20090;-71
2023/10/05 02:17:00;;;;;;;19.73;9.65;;;;;;;13.55;100.00;98217.59;5134345;27;20021;-71
2023/10/05 02:19:26;;;;;;;22.83;9.70;;;;;;;13.56;100.00;98222.03;5152689;27;20413;-71
2023/10/05 02:21:54;;;;;;;21.05;9.00;;;;;;;13.42;100.00;98219.31;5151968;27;20022;-71
2023/10/05 02:24:22;;;;;;;27.05;14.27;;;;;;;13.40;100.00;98215.00;5117230;27;20022;-70
2023/10/05 02:29:28;;;;;;;23.67;13.07;;;;;;;13.50;100.00;98221.53;5152812;27;20405;-71
2023/10/05 02:34:44;;;;;;;33.08;12.85;;;;;;;13.35;100.00;98214.44;5119518;27;20023;-71
2023/10/05 02:37:12;;;;;;;44.85;18.30;;;;;;;13.32;100.00;98228.91;5111501;27;20090;-78
2023/10/05 02:39:38;;;;;;;35.47;15.95;;;;;;;13.29;100.00;98222.88;5125824;27;20410;-78
2023/10/05 02:42:06;;;;;;;21.63;10.77;;;;;;;13.21;100.00;98228.72;5113339;27;20027;-78
2023/10/05 02:44:37;;;;;;;23.73;10.63;;;;;;;13.15;100.00;98231.78;5096365;27;20490;-77
2023/10/05 02:47:10;;;;;;;17.13;8.18;;;;;;;13.05;100.00;98231.44;5121553;27;20027;-78
2023/10/05 02:49:47;;;;;;;20.15;8.77;;;;;;;12.99;100.00;98222.88;5097099;27;20060;-77
2023/10/05 02:52:15;;;;;;;26.75;8.77;;;;;;;13.05;100.00;98225.19;5102440;27;20019;-77
2023/10/05 02:54:42;;;;;;;18.23;8.57;;;;;;;12.96;100.00;98218.56;5125407;27;20031;-76
2023/10/05 02:57:08;;;;;;;19.25;11.55;;;;;;;13.02;100.00;98233.44;5113215;28;20072;-77
2023/10/05 02:59:34;;;;;;;18.70;9.38;;;;;;;13.05;100.00;98233.25;5120619;27;20019;-77
2023/10/05 03:02:06;;;;;;;20.85;9.27;;;;;;;13.01;100.00;98235.25;5130922;27;20045;-78
2023/10/05 03:05:17;;;;;;;19.55;8.55;;;;;;;13.02;100.00;98241.50;5127656;27;20030;-76
2023/10/05 03:07:18;;;;;;;25.17;9.82;;;;;;;13.01;100.00;98242.47;5110853;27;20057;-77
2023/10/05 03:09:46;;;;;;;22.42;8.55;;;;;;;13.01;100.00;98237.94;5130996;27;20034;-76
2023/10/05 03:12:12;;;;;;;19.75;8.20;;;;;;;13.06;100.00;98243.06;5127204;28;20015;-76
2023/10/05 03:14:38;;;;;;;17.33;8.02;;;;;;;13.06;100.00;98245.75;5100118;27;20034;-77
2023/10/05 03:17:14;;;;;;;30.33;8.73;;;;;;;13.03;100.00;98243.25;5130445;27;20387;-76
2023/10/05 03:19:39;;;;;;;17.42;7.85;;;;;;;13.02;100.00;98247.75;5107621;28;20035;-77
2023/10/05 03:22:11;;;;;;;21.63;8.90;;;;;;;12.98;100.00;98237.28;5120906;27;20027;-75
2023/10/05 03:24:37;;;;;;;18.23;9.07;;;;;;;12.95;100.00;98229.41;5114471;27;20127;-78
2023/10/05 03:27:03;;;;;;;20.33;8.43;;;;;;;13.01;100.00;98232.56;5129979;27;20058;-74
2023/10/05 03:29:29;;;;;;;17.77;8.25;;;;;;;13.07;100.00;98235.88;5130963;27;20072;-77
2023/10/05 03:34:34;;;;;;;19.75;9.10;;;;;;;12.99;100.00;98244.38;5136312;27;20474;-77
2023/10/05 03:37:08;;;;;;;21.73;9.07;;;;;;;13.00;100.00;98241.59;5117231;27;20098;-76
2023/10/05 03:39:39;;;;;;;24.58;9.63;;;;;;;13.06;100.00;98232.31;5135240;27;20062;-77
2023/10/05 03:42:05;;;;;;;21.17;10.77;;;;;;;13.04;100.00;98235.06;5099141;27;20143;-77
2023/10/05 03:44:31;;;;;;;21.50;9.77;;;;;;;13.10;100.00;98238.41;5114139;27;20058;-77
2023/10/05 03:46:57;;;;;;;20.42;10.23;;;;;;;13.12;100.00;98239.16;5132018;27;20113;-77
2023/10/05 03:49:23;;;;;;;35.22;11.32;;;;;;;13.07;100.00;98234.03;5117758;27;20029;-77
2023/10/05 03:51:52;;;;;;;30.92;11.52;;;;;;;13.06;100.00;98237.69;5126821;27;20027;-71
2023/10/05 03:54:21;;;;;;;24.42;11.68;;;;;;;13.10;100.00;98244.63;5096766;27;20031;-71
2023/10/05 03:56:50;;;;;;;23.35;10.48;;;;;;;13.06;100.00;98235.00;5111928;27;20042;-71
2023/10/05 03:59:16;;;;;;;28.40;11.30;;;;;;;13.15;100.00;98252.41;5116895;27;20026;-72
2023/10/05 04:01:48;;;;;;;26.05;11.88;;;;;;;13.09;100.00;98248.28;5134075;27;20019;-72
2023/10/05 04:04:21;;;;;;;27.25;10.02;;;;;;;13.07;100.00;98248.31;5134923;27;20076;-71
2023/10/05 04:06:51;;;;;;;23.30;10.13;;;;;;;13.06;100.00;98259.16;5134991;27;20039;-71
2023/10/05 04:09:19;;;;;;;21.95;8.30;;;;;;;12.88;100.00;98253.09;5123352;27;20103;-70
2023/10/05 04:11:45;;;;;;;24.38;10.27;;;;;;;12.83;100.00;98256.97;5114884;27;20019;-72
2023/10/05 04:14:12;;;;;;;26.85;10.45;;;;;;;12.86;100.00;98259.47;5115898;27;20516;-71
2023/10/05 04:16:38;;;;;;;27.73;10.13;;;;;;;12.87;100.00;98258.53;5134204;27;20054;-72
2023/10/05 04:19:04;;;;;;;26.00;9.90;;;;;;;12.82;100.00;98256.16;5124433;27;20030;-71
2023/10/05 04:21:33;;;;;;;18.50;9.32;;;;;;;12.87;100.00;98258.53;5099274;27;20023;-71
2023/10/05 04:23:59;;;;;;;32.40;10.07;;;;;;;12.89;100.00;98270.03;5111231;27;20047;-72
2023/10/05 04:26:37;;;;;;;31.42;9.82;;;;;;;12.87;100.00;98274.66;5115601;27;20031;-71
2023/10/05 04:29:08;;;;;;;30.45;10.93;;;;;;;12.78;100.00;98269.81;5115646;27;20471;-72
2023/10/05 04:31:36;;;;;;;31.88;10.25;;;;;;;12.78;100.00;98275.19;5144657;27;20083;-71
2023/10/05 04:34:05;;;;;;;29.90;10.82;;;;;;;12.80;100.00;98278.63;5138560;27;20023;-71
2023/10/05 04:36:31;;;;;;;25.27;10.32;;;;;;;12.86;100.00;98272.91;5133722;27;20027;-71
2023/10/05 04:38:57;;;;;;;39.78;13.80;;;;;;;12.92;100.00;98272.56;5115881;27;20027;-71
2023/10/05 04:41:34;;;;;;;30.17;13.07;;;;;;;12.93;100.00;98274.28;5116823;27;20129;-72
2023/10/05 04:44:01;;;;;;;28.67;11.98;;;;;;;12.96;100.00;98285.72;5135795;27;20021;-71
2023/10/05 04:46:28;;;;;;;28.08;11.40;;;;;;;12.87;100.00;98280.00;5145231;27;20095;-71
2023/10/05 04:49:09;;;;;;;51.10;16.83;;;;;;;13.02;100.00;98295.22;5118688;27;20549;-71
2023/10/05 04:51:40;;;;;;;42.80;17.52;;;;;;;13.13;100.00;98300.00;5127185;27;20031;-71
2023/10/05 04:54:07;;;;;;;20.73;10.23;;;;;;;13.16;100.00;98292.63;5114522;27;20484;-70
2023/10/05 04:56:40;;;;;;;28.45;11.32;;;;;;;13.26;100.00;98299.13;5135362;27;20027;-71
2023/10/05 05:01:56;;;;;;;44.85;15.70;;;;;;;13.45;100.00;98305.13;5135807;27;20026;-72
2023/10/05 05:07:01;;;;;;;31.98;12.13;;;;;;;13.49;100.00;98312.06;5137380;27;20399;-71
2023/10/05 05:09:30;;;;;;;34.95;11.93;;;;;;;13.65;100.00;98316.47;5135030;27;20025;-71
2023/10/05 05:12:03;;;;;;;40.33;12.23;;;;;;;13.76;100.00;98312.16;5118440;27;20405;-71
2023/10/05 05:14:32;;;;;;;26.42;12.77;;;;;;;13.96;100.00;98319.84;5119095;27;20062;-72
2023/10/05 05:17:05;;;;;;;43.03;12.52;;;;;;;14.20;100.00;98316.56;5135696;27;20106;-72
2023/10/05 05:19:36;;;;;;;27.02;12.98;;;;;;;14.49;100.00;98316.41;5100566;27;20511;-71
2023/10/05 05:22:05;;;;;;;42.77;13.27;;;;;;;14.54;100.00;98308.94;5146559;27;20030;-72
2023/10/05 05:24:37;;;;;;;49.67;13.98;;;;;;;14.54;100.00;98308.94;5135516;27;20034;-72
2023/10/05 05:27:11;;;;;;;43.63;12.98;;;;;;;14.47;100.00;98321.06;5135122;27;20049;-71
2023/10/05 05:29:36;;;;;;;60.25;18.58;;;;;;;14.29;100.00;98318.66;5124696;27;20037;-71
2023/10/05 05:32:15;;;;;;;35.85;14.50;;;;;;;14.23;100.00;98309.16;5125981;27;20366;-71
2023/10/05 05:34:42;;;;;;;39.90;11.75;;;;;;;14.18;100.00;98326.56;5136495;27;20034;-70
2023/10/05 05:37:08;;;;;;;32.08;10.98;;;;;;;14.17;100.00;98325.69;5134892;27;20033;-73
2023/10/05 05:39:40;;;;;;;43.13;12.02;;;;;;;14.26;100.00;98335.00;5108740;27;20026;-71
2023/10/05 05:42:18;;;;;;;25.55;11.10;;;;;;;14.27;100.00;98320.59;5097770;27;20027;-71
2023/10/05 05:44:44;;;;;;;50.45;14.85;;;;;;;14.47;100.00;98329.13;5109436;27;20154;-72
2023/10/05 05:47:10;;;;;;;36.95;11.73;;;;;;;14.83;100.00;98324.97;5134608;27;20114;-71
2023/10/05 05:49:45;;;;;;;26.63;11.45;;;;;;;15.15;100.00;98332.63;5117381;27;20037;-71
2023/10/05 05:52:11;;;;;;;27.17;12.55;;;;;;;15.27;100.00;98325.53;5135251;27;20590;-71
2023/10/05 05:54:38;;;;;;;32.58;14.30;;;;;;;15.18;100.00;98316.25;5127268;27;20033;-71
2023/10/05 05:57:06;;;;;;;31.05;14.25;;;;;;;15.57;100.00;98323.44;5095877;27;20538;-70
2023/10/05 05:59:35;;;;;;;43.25;13.50;;;;;;;16.26;100.00;98322.13;5097240;27;20483;-71
2023/10/05 06:02:04;;;;;;;28.65;13.07;;;;;;;16.70;100.00;98314.31;5108185;27;20454;-71
2023/10/05 06:04:32;;;;;;;31.85;12.27;;;;;;;17.42;100.00;98304.31;5140643;27;20539;-72
2023/10/05 06:06:59;;;;;;;38.88;12.75;;;;;;;18.54;100.00;98305.31;5107960;27;20030;-72
2023/10/05 06:09:26;;;;;;;29.20;12.10;;;;;;;19.51;100.00;98303.38;5134022;27;20019;-71
2023/10/05 06:11:53;;;;;;;35.95;11.57;;;;;;;20.32;100.00;98284.44;5116655;27;20502;-70
2023/10/05 06:14:19;;;;;;;32.28;12.48;;;;;;;20.82;100.00;98290.72;5113894;27;20447;-71
2023/10/05 06:16:45;;;;;;;28.60;11.80;;;;;;;21.05;100.00;98278.56;5113512;27;20105;-72
2023/10/05 06:19:10;;;;;;;22.13;11.52;;;;;;;21.35;100.00;98287.66;5100575;27;20727;-71
2023/10/05 06:21:36;;;;;;;23.35;11.07;;;;;;;21.38;100.00;98290.91;5133718;27;20047;-71
2023/10/05 06:24:05;;;;;;;34.53;13.43;;;;;;;22.10;97.89;98284.94;5146535;27;20050;-72
2023/10/05 06:26:31;;;;;;;36.03;12.02;;;;;;;22.53;91.00;98290.63;5137056;27;20123;-71
2023/10/05 06:28:57;;;;;;;32.05;11.73;;;;;;;22.59;89.35;98286.44;5094366;27;20530;-71
2023/10/05 06:31:23;;;;;;;31.38;12.57;;;;;;;22.27;91.98;98299.66;5116270;27;20505;-71
2023/10/05 06:33:48;;;;;;;27.73;11.55;;;;;;;22.30;92.65;98304.81;5125706;27;20094;-71
2023/10/05 06:36:14;;;;;;;34.33;15.10;;;;;;;23.33;85.27;98291.69;5140747;27;20031;-70
2023/10/05 06:38:40;;;;;;;26.73;11.23;;;;;;;23.68;81.08;98295.31;5113125;27;20042;-70
2023/10/05 06:41:06;;;;;;;31.05;11.05;;;;;;;23.62;80.10;98285.00;5129868;27;20034;-72
2023/10/05 06:43:35;;;;;;;40.92;11.82;;;;;;;24.31;81.37;98295.06;5116688;27;20080;-72
2023/10/05 06:46:17;;;;;;;25.77;10.93;;;;;;;24.55;74.32;98284.22;5129352;27;20424;-73
2023/10/05 06:48:43;;;;;;;31.27;11.93;;;;;;;25.31;73.58;98276.81;5151199;27;20045;-72
2023/10/05 06:51:09;;;;;;;33.08;10.20;;;;;;;25.82;66.88;98263.78;5150890;27;20113;-72
2023/10/05 06:53:37;;;;;;;21.90;9.93;;;;;;;26.32;63.00;98266.31;5150724;27;20562;-72
2023/10/05 06:56:03;;;;;;;24.70;10.32;;;;;;;26.68;60.14;98269.41;5116270;27;20114;-72
2023/10/05 06:58:29;;;;;;;23.23;10.38;;;;;;;26.42;60.47;98271.59;5117074;27;20028;-72
2023/10/05 07:00:54;;;;;;;37.00;10.35;;;;;;;26.38;60.66;98271.09;5127295;27;20041;-72
2023/10/05 07:03:20;;;;;;;28.38;11.75;;;;;;;26.48;61.30;98271.75;5112795;27;20039;-72
2023/10/05 07:05:47;;;;;;;31.40;12.32;;;;;;;26.52;61.54;98267.59;5127942;27;20037;-72
2023/10/05 07:08:15;;;;;;;29.73;11.38;;;;;;;26.42;60.59;98257.88;5151720;27;20114;-72
2023/10/05 07:10:49;;;;;;;45.30;13.82;;;;;;;26.50;61.18;98266.94;5150798;27;20080;-72
2023/10/05 07:13:19;;;;;;;40.83;11.32;;;;;;;26.50;62.64;98271.56;5154448;27;20046;-72
2023/10/05 07:15:45;;;;;;;19.08;10.32;;;;;;;26.68;60.86;98269.41;5154869;27;20029;-71
2023/10/05 07:18:10;;;;;;;24.45;9.70;;;;;;;26.60;61.20;98270.31;5137452;27;20402;-71
2023/10/05 07:20:40;;;;;;;23.30;10.98;;;;;;;27.07;58.32;98264.78;5145440;27;20119;-71
2023/10/05 07:23:07;;;;;;;20.38;9.85;;;;;;;27.51;56.66;98264.16;5134936;27;20047;-71
2023/10/05 07:25:33;;;;;;;21.73;10.18;;;;;;;27.57;55.62;98268.91;5121515;27;20022;-71
2023/10/05 07:28:03;;;;;;;28.63;10.23;;;;;;;27.86;55.68;98267.13;5130235;27;20022;-71
2023/10/05 07:30:29;;;;;;;19.40;10.38;;;;;;;27.96;54.78;98269.63;5125993;27;20019;-71
2023/10/05 07:32:55;;;;;;;20.80;10.45;;;;;;;28.18;53.78;98257.69;5120053;27;20019;-71
2023/10/05 07:35:38;;;;;;;36.55;10.02;;;;;;;27.79;55.27;98255.16;5118840;27;20034;-71
2023/10/05 07:38:41;;;;;;;29.30;11.98;;;;;;;28.07;55.04;98265.56;5145046;27;20027;-73
2023/10/05 07:41:07;;;;;;;26.98;10.13;;;;;;;28.50;54.00;98273.00;5109061;27;20092;-71
2023/10/05 07:43:34;;;;;;;39.95;11.45;;;;;;;29.44;51.42;98258.34;5112645;27;20032;-71
2023/10/05 07:46:04;;;;;;;23.05;10.45;;;;;;;29.71;49.79;98256.69;5125194;27;20023;-72
2023/10/05 07:48:33;;;;;;;23.48;10.90;;;;;;;29.54;49.98;98245.91;5122504;27;20032;-73
2023/10/05 07:50:59;;;;;;;20.60;9.43;;;;;;;29.68;49.68;98246.06;5114127;27;20497;-72
2023/10/05 07:53:25;;;;;;;21.30;10.35;;;;;;;30.13;48.59;98251.13;5114070;27;20098;-72
2023/10/05 07:55:52;;;;;;;17.40;9.75;;;;;;;29.19;50.74;98245.94;5133399;27;20031;-71
2023/10/05 07:58:19;;;;;;;21.55;9.13;;;;;;;29.13;51.93;98250.34;5126587;27;20032;-71
2023/10/05 08:00:45;;;;;;;19.33;8.77;;;;;;;29.42;51.43;98244.75;5136508;27;20501;-72
2023/10/05 08:03:11;;;;;;;31.13;9.48;;;;;;;29.85;50.93;98247.50;5116724;27;20027;-71
2023/10/05 08:05:36;;;;;;;22.35;9.45;;;;;;;29.42;51.62;98250.25;5112548;27;20134;-72
2023/10/05 08:08:04;;;;;;;29.25;12.80;;;;;;;28.95;53.50;98258.16;5119938;27;20054;-72
2023/10/05 08:10:31;;;;;;;16.85;10.65;;;;;;;29.11;52.93;98263.44;5154674;27;20026;-72
2023/10/05 08:13:00;;;;;;;32.65;14.23;;;;;;;29.93;50.83;98241.84;5127822;27;20026;-71
2023/10/05 08:15:26;;;;;;;33.25;14.98;;;;;;;30.61;48.62;98238.25;5136311;27;20402;-72
2023/10/05 08:17:51;;;;;;;22.70;11.48;;;;;;;31.11;46.92;98229.59;5123143;27;20035;-71
2023/10/05 08:20:18;;;;;;;22.02;9.10;;;;;;;31.05;47.09;98238.72;5109535;27;20394;-72
2023/10/05 08:22:46;;;;;;;18.95;8.93;;;;;;;31.21;46.86;98234.72;5112455;27;20043;-72
2023/10/05 08:25:11;;;;;;;21.58;8.13;;;;;;;30.89;46.36;98232.66;5121157;27;20031;-72
2023/10/05 08:27:42;;;;;;;16.90;8.20;;;;;;;30.37;47.77;98224.94;5114800;27;20035;-72
2023/10/05 08:30:10;;;;;;;22.33;8.63;;;;;;;29.80;49.50;98228.75;5126349;27;20483;-72
2023/10/05 08:32:37;;;;;;;18.27;8.43;;;;;;;30.38;47.89;98223.88;5116673;27;20047;-72
2023/10/05 08:35:21;;;;;;;13.10;8.23;;;;;;;30.91;46.78;98219.50;5101609;27;20022;-70
2023/10/05 08:37:50;;;;;;;21.98;8.43;;;;;;;31.74;45.50;98210.78;5136069;27;20026;-71
2023/10/05 08:43:09;;;;;;;15.80;7.40;;;;;;;31.98;44.28;98218.44;5150107;27;20486;-71
2023/10/05 08:45:49;;;;;;;19.25;7.38;;;;;;;32.61;43.22;98211.31;5141704;27;20034;-71
2023/10/05 08:48:19;;;;;;;16.38;7.40;;;;;;;33.50;41.58;98202.16;5119004;27;20430;-71
2023/10/05 08:50:58;;;;;;;20.33;7.55;;;;;;;33.65;40.93;98205.50;5116033;27;20027;-71
2023/10/05 08:53:24;;;;;;;15.77;7.03;;;;;;;32.08;43.04;98213.38;5135678;27;20033;-71
2023/10/05 08:55:54;;;;;;;12.63;6.28;;;;;;;32.28;42.45;98205.00;5101341;27;20032;-72
2023/10/05 08:58:21;;;;;;;21.48;6.88;;;;;;;33.23;41.30;98195.91;5136061;27;20026;-72
2023/10/05 09:00:47;;;;;;;16.50;7.20;;;;;;;33.50;40.41;98193.84;5134962;27;20026;-71
2023/10/05 09:03:35;;;;;;;12.57;6.90;;;;;;;33.34;40.58;98188.81;5116983;27;20027;-71
2023/10/05 09:06:13;;;;;;;14.15;6.90;;;;;;;34.28;39.43;98186.75;5138935;27;20132;-72
2023/10/05 09:08:51;;;;;;;13.98;7.28;;;;;;;34.52;38.38;98185.84;5133108;27;20031;-71
2023/10/05 09:11:31;;;;;;;25.33;7.07;;;;;;;34.71;38.03;98182.03;5139730;27;20038;-71
2023/10/05 09:14:13;;;;;;;13.05;6.53;;;;;;;34.76;37.87;98184.94;5119277;27;20033;-72
2023/10/05 09:16:43;;;;;;;11.55;6.38;;;;;;;34.20;38.11;98178.75;5106504;27;20529;-72
2023/10/05 09:19:15;;;;;;;20.83;6.40;;;;;;;34.66;37.84;98176.31;5114552;27;20387;-72
2023/10/05 09:21:50;;;;;;;;;;;;;;;33.69;39.37;98179.81;5133529;27;20045;-71
2023/10/05 09:24:20;;;;;;;17.08;7.68;;;;;;;34.03;38.57;98180.34;5127982;27;19915;-72
2023/10/05 09:26:50;;;;;;;13.15;6.20;;;;;;;33.66;39.19;98183.03;5113123;27;20027;-72
2023/10/05 09:29:21;;;;;;;12.18;6.50;;;;;;;33.41;39.91;98168.25;5133810;27;20050;-72
2023/10/05 09:31:57;;;;;;;17.40;7.60;;;;;;;33.37;39.58;98177.28;5113785;27;20479;-72
2023/10/05 09:34:49;;;;;;;14.65;6.60;;;;;;;33.30;39.79;98174.53;5110430;27;20023;-71
2023/10/05 09:37:16;;;;;;;15.45;6.60;;;;;;;34.06;38.90;98169.66;5117699;27;20033;-71
2023/10/05 09:39:43;;;;;;;13.88;6.43;;;;;;;33.31;39.57;98173.47;5127902;27;20502;-71
2023/10/05 09:42:25;;;;;;;20.35;8.07;;;;;;;33.72;38.95;98167.41;5113766;27;20032;-72
2023/10/05 09:44:53;;;;;;;17.15;6.55;;;;;;;33.14;40.22;98169.50;5109062;27;20062;-71
2023/10/05 09:47:21;;;;;;;12.93;6.75;;;;;;;34.28;38.44;98158.97;5113881;27;20031;-71
2023/10/05 09:49:47;;;;;;;12.10;7.03;;;;;;;35.38;37.09;98147.50;5099833;27;20554;-71
2023/10/05 09:52:13;;;;;;;15.00;6.65;;;;;;;35.56;36.48;98141.00;5132063;27;20023;-72
2023/10/05 09:54:40;;;;;;;16.52;6.75;;;;;;;36.23;35.46;98139.63;5096816;27;20450;-72
2023/10/05 09:57:10;;;;;;;12.10;6.70;;;;;;;36.75;34.57;98134.09;5116050;27;20108;-72
2023/10/05 09:59:41;;;;;;;13.73;6.78;;;;;;;37.58;33.80;98117.59;5097400;28;20114;-72
2023/10/05 10:02:14;;;;;;;16.02;7.15;;;;;;;37.67;33.43;98115.22;5112582;27;20026;-72
2023/10/05 10:04:41;;;;;;;13.73;7.75;;;;;;;37.76;32.96;98113.69;5139775;27;20043;-71
2023/10/05 10:07:15;;;;;;;10.75;7.35;;;;;;;37.78;32.56;98106.72;5113316;27;20034;-72
2023/10/05 10:09:44;;;;;;;13.40;7.75;;;;;;;37.74;32.58;98107.50;5097298;27;20031;-71
2023/10/05 10:12:10;;;;;;;17.98;11.20;;;;;;;37.72;33.09;98107.75;5113357;27;20423;-71
2023/10/05 10:14:41;;;;;;;23.25;6.88;;;;;;;37.81;32.32;98100.63;5131824;27;20048;-71
2023/10/05 10:17:24;;;;;;;12.18;7.07;;;;;;;37.06;33.17;98089.00;5094032;27;20058;-72
2023/10/05 10:19:55;;;;;;;17.27;7.07;;;;;;;37.57;32.36;98085.16;5098722;27;20612;-72
2023/10/05 10:22:50;;;;;;;10.85;6.70;;;;;;;37.09;32.54;98090.41;5113307;27;20115;-71
2023/10/05 10:25:50;;;;;;;15.23;7.30;;;;;;;37.63;32.32;98092.53;5130836;27;20026;-72
2023/10/05 10:31:42;;;;;;;16.42;7.50;;;;;;;36.52;33.27;98090.38;5134013;27;20073;-72
2023/10/05 10:34:28;;;;;;;11.73;7.75;;;;;;;37.22;32.77;98076.16;5120567;27;20106;-72
2023/10/05 10:39:38;;;;;;;17.02;7.15;;;;;;;37.27;32.15;98056.69;5129204;27;20029;-72
2023/10/05 10:42:04;;;;;;;17.30;7.40;;;;;;;37.87;32.26;98065.25;5116296;27;20019;-72
2023/10/05 10:44:47;;;;;;;12.70;7.38;;;;;;;37.58;31.80;98047.75;5113579;27;20026;-72
2023/10/05 10:47:14;;;;;;;10.95;7.18;;;;;;;38.25;31.32;98047.63;5120760;27;20039;-70
2023/10/05 10:49:40;;;;;;;12.20;7.88;;;;;;;38.53;30.77;98041.88;5112974;27;20123;-72
2023/10/05 10:52:12;;;;;;;11.23;6.55;;;;;;;38.24;30.13;98026.38;5093500;27;20035;-71
2023/10/05 10:54:45;;;;;;;31.80;7.20;;;;;;;37.85;30.51;98028.31;5112793;27;20042;-72
2023/10/05 10:57:21;;;;;;;21.40;6.97;;;;;;;38.47;29.82;98026.13;5113341;27;20069;-74
2023/10/05 10:59:47;;;;;;;14.60;6.55;;;;;;;38.29;29.65;98012.47;5105791;28;20031;-71
2023/10/05 11:02:19;;;;;;;16.48;6.70;;;;;;;39.08;29.16;98015.59;5112612;27;20098;-72
2023/10/05 11:04:47;;;;;;;11.73;6.57;;;;;;;38.86;29.04;98013.72;5134210;27;20037;-71
2023/10/05 11:07:13;;;;;;;10.40;6.60;;;;;;;38.66;29.01;98010.69;5133587;27;20033;-71
2023/10/05 11:10:04;;;;;;;12.60;7.25;;;;;;;38.94;28.92;98001.22;5116000;27;20031;-72
2023/10/05 11:12:26;;;;;;;17.20;7.43;;;;;;;39.22;29.12;98000.91;5112463;27;20424;-72
2023/10/05 11:15:08;;;;;;;11.30;6.93;;;;;;;38.89;29.09;97996.41;5129735;27;20059;-71
2023/10/05 11:17:36;;;;;;;12.52;7.10;;;;;;;38.33;29.41;97989.28;5151857;27;20113;-72
2023/10/05 11:20:18;;;;;;;11.32;6.45;;;;;;;38.94;28.69;97990.03;5109842;28;20474;-75
2023/10/05 11:22:44;;;;;;;12.32;6.50;;;;;;;38.81;28.46;97980.09;5107769;27;20105;-71
2023/10/05 11:25:16;;;;;;;8.57;5.80;;;;;;;38.74;28.66;97981.38;5096489;28;20445;-72
2023/10/05 11:27:48;;;;;;;11.65;6.35;;;;;;;39.48;28.30;97982.38;5131034;27;20027;-72
2023/10/05 11:30:21;;;;;;;16.20;6.88;;;;;;;39.01;27.96;97971.03;5150376;27;20054;-72
2023/10/05 11:32:56;;;;;;;14.20;6.32;;;;;;;39.28;28.34;97971.88;5113399;27;20015;-71
2023/10/05 11:35:40;;;;;;;8.73;6.30;;;;;;;39.30;27.83;97969.63;5127060;27;20050;-70
2023/10/05 11:38:06;;;;;;;15.02;5.93;;;;;;;39.53;27.81;97968.41;5132309;27;20028;-70
2023/10/05 11:40:35;;;;;;;13.15;6.38;;;;;;;39.22;27.77;97963.66;5095351;27;20023;-71
2023/10/05 11:43:07;;;;;;;17.77;7.03;;;;;;;39.10;28.62;97963.00;5112168;27;20317;-72
2023/10/05 11:45:37;;;;;;;20.77;7.18;;;;;;;38.71;30.29;97962.31;5148094;27;20027;-71
2023/10/05 11:48:11;;;;;;;12.20;6.28;;;;;;;39.23;29.33;97968.16;5133141;27;20451;-70
2023/10/05 11:50:37;;;;;;;15.95;6.30;;;;;;;39.00;29.60;97953.41;5114735;27;20380;-71
2023/10/05 11:53:10;;;;;;;9.43;5.97;;;;;;;38.13;30.06;97957.47;5112157;27;20056;-71
2023/10/05 11:55:35;;;;;;;12.60;6.25;;;;;;;38.89;29.35;97948.81;5128370;27;20034;-71
2023/10/05 11:58:01;;;;;;;9.57;6.10;;;;;;;38.33;30.21;97952.94;5125924;27;20031;-70
2023/10/05 12:00:31;;;;;;;16.65;5.85;;;;;;;37.62;31.13;97951.19;5115843;27;20019;-72
2023/10/05 12:02:57;;;;;;;11.27;6.30;;;;;;;38.24;30.44;97948.09;5132162;27;20027;-72
2023/10/05 12:05:25;;;;;;;10.00;6.47;;;;;;;38.35;30.15;97942.38;5116920;27;20047;-72
2023/10/05 12:07:51;;;;;;;13.98;7.55;;;;;;;38.91;29.36;97946.63;5102285;27;20032;-72
2023/10/05 12:10:16;;;;;;;11.70;5.90;;;;;;;39.78;28.34;97943.34;5115682;27;20030;-72